Hovedside
METAR-TAF:

METAR-TAF

Lufthavner :

Nawabshah, Pakistan

breddegrad: 26-15N, lengdegrad: 068-22E, høyde over havet: 37 m

Gjeldene værobservasjon

Denne rapporten ble laget for 11 timer og 36 minutter siden, klokken 11:00 UTC
Vind 8 kt fra Sør
Temperatur 43°C
Luftfuktighet 39%
Trykk 997 hPa
Sikt: 6000 m

METAR: OPNH 141100Z 18008KT 6000 NSC 43/26 Q0997

Tid: 03:36 (22:36 UTC)

Varsel

Denne rapporten ble laget for 5 timer og 36 minutter siden, klokken 17:00 UTC
Varsel gyldig fra 14. klokken 18 UTC til 15. klokken 24 UTC
Vind 10 kt fra Sør
Sikt: 5000 m
dis
Fra 15. klokken 0600 UTC
Vind 7 kt fra Sør med vindkast opp mot 17 kt
Sikt: 6000 m

TAF: OPNH 141700Z 1418/1524 18010KT 5000 HZ NSC FM150600 18007G17KT 6000 NSC

Værobservasjoner og værvarsel for over 4000 flyplasser (METAR- og TAF-rapporter).

Tilgjengelige stasjoner er representert av de røde og gule prikkene på kartet.

Hold musepekeren over prikken for å se navnet på stasjonen.

Klikk så for å se værobservasjoner og -varsler.

For å forandre kartet kan du klikke på den grønne knappen med svart kryss for å zoome inn, på den grønne knappen med strek for å zoome ut, eller på de grønne pilene for å se tilstøtende kart.


METAR-TAF: